Time;durP1;ratioP1;P1;durP2;ratioP2;P2;SDS_P1;SDS_P2;PMS_P1;PMS_P2;Temp;Humidity;BMP_temperature;BMP_pressure;BME280_temperature;BME280_humidity;BME280_pressure;Samples;Min_cycle;Max_cycle;Signal;HPM_P1;HPM_P2
2023/10/15 00:00:28;;;;;;;1.48;0.63;;;;;;;22.31;31.36;100663.22;4510095;28;20072;-62
2023/10/15 00:02:39;;;;;;;1.05;0.60;;;;;;;22.30;31.39;100661.56;4510825;28;21216;-63
2023/10/15 00:04:50;;;;;;;1.65;0.73;;;;;;;22.32;31.45;100659.16;4509576;28;20041;-62
2023/10/15 00:07:05;;;;;;;1.23;0.60;;;;;;;22.34;31.53;100661.66;4510449;28;20045;-62
2023/10/15 00:09:16;;;;;;;1.40;0.55;;;;;;;22.30;31.06;100652.94;4510477;28;20029;-62
2023/10/15 00:11:27;;;;;;;0.85;0.55;;;;;;;22.31;31.71;100662.41;4511922;28;20041;-62
2023/10/15 00:13:38;;;;;;;2.78;0.75;;;;;;;22.32;31.38;100661.19;4511234;28;20069;-62
2023/10/15 00:15:48;;;;;;;2.00;0.70;;;;;;;22.32;31.50;100664.06;4510257;28;20036;-63
2023/10/15 00:18:02;;;;;;;1.40;0.70;;;;;;;22.31;31.35;100666.09;4510854;28;20053;-62
2023/10/15 00:20:16;;;;;;;1.67;0.73;;;;;;;22.29;31.16;100670.56;4512637;28;20137;-62
2023/10/15 00:22:27;;;;;;;1.48;0.85;;;;;;;22.32;31.58;100669.81;4516129;28;20129;-62
2023/10/15 00:24:40;;;;;;;1.08;0.73;;;;;;;22.32;31.69;100669.81;4514823;28;20062;-62
2023/10/15 00:26:50;;;;;;;1.48;0.80;;;;;;;22.29;31.51;100665.66;4513341;28;20038;-63
2023/10/15 00:29:01;;;;;;;1.98;1.00;;;;;;;22.30;31.40;100655.81;4500013;28;21014;-63
2023/10/15 00:31:13;;;;;;;1.75;0.90;;;;;;;22.25;31.20;100646.69;4490490;28;20110;-63
2023/10/15 00:33:25;;;;;;;3.15;0.82;;;;;;;22.29;31.19;100662.78;4497017;28;20036;-63
2023/10/15 00:35:35;;;;;;;1.63;0.70;;;;;;;22.30;31.34;100670.19;4496578;28;20098;-63
2023/10/15 00:37:56;;;;;;;1.30;0.65;;;;;;;22.30;31.49;100667.31;4488114;28;20038;-63
2023/10/15 00:40:16;;;;;;;1.23;0.60;;;;;;;22.31;31.14;100668.16;4511432;28;20024;-62
2023/10/15 00:42:30;;;;;;;1.58;0.68;;;;;;;22.30;31.13;100661.56;4507451;28;21013;-62
2023/10/15 00:44:40;;;;;;;1.92;0.70;;;;;;;22.29;31.37;100667.69;4494231;28;20596;-62
2023/10/15 00:46:54;;;;;;;2.10;0.75;;;;;;;22.27;31.29;100668.06;4510672;28;20036;-62
2023/10/15 00:49:47;;;;;;;1.35;0.60;;;;;;;22.30;31.21;100666.47;4492015;28;20046;-62
2023/10/15 00:51:44;;;;;;;1.70;0.70;;;;;;;22.29;31.22;100668.53;4504132;28;20066;-62
2023/10/15 00:53:58;;;;;;;1.77;0.80;;;;;;;22.13;31.44;100639.84;4477328;28;20041;-63
2023/10/15 00:56:10;;;;;;;1.33;0.60;;;;;;;22.27;31.59;100667.22;4510398;28;21685;-62
2023/10/15 00:58:54;;;;;;;1.83;0.65;;;;;;;22.29;31.48;100659.06;4492871;28;20065;-63
2023/10/15 01:00:55;;;;;;;1.77;0.70;;;;;;;22.27;31.43;100655.72;4510117;28;20729;-62
2023/10/15 01:03:07;;;;;;;1.55;0.70;;;;;;;22.27;31.16;100655.72;4493303;28;20030;-63
2023/10/15 01:05:18;;;;;;;1.20;0.60;;;;;;;22.23;31.23;100649.09;4511836;28;20030;-63
2023/10/15 01:07:43;;;;;;;1.20;0.50;;;;;;;22.26;31.35;100648.31;4510730;28;20028;-62
2023/10/15 01:09:53;;;;;;;1.35;0.70;;;;;;;22.25;31.25;100652.44;4512281;28;20034;-62
2023/10/15 01:12:19;;;;;;;1.95;0.70;;;;;;;22.17;31.21;100632.13;4486030;28;20030;-63
2023/10/15 01:14:33;;;;;;;1.33;0.60;;;;;;;22.24;31.55;100640.09;4509832;28;20044;-62
2023/10/15 01:16:43;;;;;;;1.98;0.80;;;;;;;22.21;31.25;100640.84;4510691;28;20049;-62
2023/10/15 01:24:27;;;;;;;1.67;0.60;;;;;;;22.25;31.41;100647.47;4487058;28;20640;-62
2023/10/15 01:26:39;;;;;;;1.17;0.50;;;;;;;22.23;31.58;100641.31;4511114;28;20046;-62
2023/10/15 01:28:51;;;;;;;0.82;0.50;;;;;;;22.21;31.15;100641.66;4512194;28;20026;-62
2023/10/15 01:31:07;;;;;;;1.58;0.75;;;;;;;22.23;31.37;100643.34;4492099;28;20042;-63
2023/10/15 01:33:20;;;;;;;1.67;0.65;;;;;;;22.23;31.55;100643.34;4512044;28;20120;-62
2023/10/15 01:35:31;;;;;;;1.23;0.68;;;;;;;22.21;31.09;100658.91;4511558;28;20069;-62
2023/10/15 01:37:45;;;;;;;1.17;0.63;;;;;;;22.23;31.14;100661.44;4512181;28;20066;-63
2023/10/15 01:40:31;;;;;;;1.45;0.57;;;;;;;22.16;31.08;100650.59;4493486;28;20035;-62
2023/10/15 01:42:40;;;;;;;1.92;0.70;;;;;;;22.20;31.18;100659.28;4511959;28;20041;-62
2023/10/15 01:44:53;;;;;;;1.25;0.70;;;;;;;22.20;31.53;100656.41;4511684;28;20029;-62
2023/10/15 01:49:31;;;;;;;1.77;0.80;;;;;;;22.21;31.32;100658.91;4493897;28;20090;-63
2023/10/15 01:51:41;;;;;;;1.13;0.50;;;;;;;22.12;31.34;100637.31;4493479;28;20153;-63
2023/10/15 01:53:53;;;;;;;1.73;0.65;;;;;;;22.20;31.36;100645.75;4509939;28;20464;-63
2023/10/15 01:56:07;;;;;;;1.17;0.65;;;;;;;22.19;31.55;100644.09;4510462;28;20088;-63
2023/10/15 01:58:17;;;;;;;1.80;0.68;;;;;;;22.18;31.47;100639.53;4509188;28;20041;-62
2023/10/15 02:02:48;;;;;;;1.33;0.70;;;;;;;22.17;31.42;100640.75;4511829;28;20038;-62
2023/10/15 02:04:58;;;;;;;1.80;0.63;;;;;;;22.17;31.43;100631.28;4509933;28;20041;-62
2023/10/15 02:07:13;;;;;;;1.35;0.80;;;;;;;22.16;31.42;100638.25;4511344;28;20033;-62
2023/10/15 02:09:23;;;;;;;0.98;0.65;;;;;;;22.18;31.91;100632.97;4493651;28;20122;-62
2023/10/15 02:11:42;;;;;;;2.78;0.70;;;;;;;22.14;31.89;100635.75;4509807;28;20121;-62
2023/10/15 02:13:55;;;;;;;1.52;0.60;;;;;;;22.14;31.90;100641.50;4494448;28;20214;-62
2023/10/15 02:16:15;;;;;;;1.35;0.60;;;;;;;22.17;31.61;100649.38;4510294;28;20034;-62
2023/10/15 02:18:29;;;;;;;1.13;0.70;;;;;;;22.17;31.62;100658.00;4493886;28;20953;-62
2023/10/15 02:20:44;;;;;;;2.63;0.80;;;;;;;22.16;31.97;100658.38;4492015;28;20039;-62
2023/10/15 02:22:57;;;;;;;1.33;0.80;;;;;;;22.07;32.29;100641.34;4511037;28;20025;-62
2023/10/15 02:25:08;;;;;;;2.10;0.90;;;;;;;22.16;32.18;100655.50;4508673;28;20038;-62
2023/10/15 02:27:23;;;;;;;1.63;0.90;;;;;;;22.17;32.70;100662.91;4493669;28;20034;-63
2023/10/15 02:31:46;;;;;;;3.70;1.10;;;;;;;22.15;32.41;100654.66;4507115;28;20557;-63
2023/10/15 02:33:57;;;;;;;1.42;0.70;;;;;;;22.15;32.84;100669.03;4507398;28;20856;-63
2023/10/15 02:36:09;;;;;;;1.42;0.60;;;;;;;22.15;32.57;100656.72;4489537;28;20104;-63
2023/10/15 02:38:19;;;;;;;1.17;0.70;;;;;;;22.04;32.24;100644.97;4505738;28;20036;-63
2023/10/15 02:40:38;;;;;;;1.02;0.60;;;;;;;22.08;32.18;100654.53;4506963;28;20036;-63
2023/10/15 02:42:54;;;;;;;0.75;0.63;;;;;;;22.14;32.27;100666.53;4506471;28;20093;-62
2023/10/15 02:45:08;;;;;;;1.45;0.70;;;;;;;22.12;32.57;100669.78;4505759;28;20901;-62
2023/10/15 02:49:52;;;;;;;1.60;0.70;;;;;;;22.10;32.49;100665.66;4507676;28;20117;-62
2023/10/15 02:52:10;;;;;;;1.85;0.70;;;;;;;22.12;32.46;100658.28;4506252;28;20046;-62
2023/10/15 02:54:28;;;;;;;1.50;0.60;;;;;;;22.08;32.07;100654.53;4505413;28;21219;-62
2023/10/15 02:56:41;;;;;;;1.35;0.63;;;;;;;22.07;32.29;100655.72;4506911;28;20116;-62
2023/10/15 02:58:51;;;;;;;0.90;0.55;;;;;;;22.10;32.25;100657.03;4506439;28;20037;-62
2023/10/15 03:01:17;;;;;;;1.27;0.60;;;;;;;22.12;31.95;100661.16;4491223;28;20049;-62
2023/10/15 03:03:34;;;;;;;1.33;0.50;;;;;;;22.09;32.41;100658.22;4489156;28;20034;-62
2023/10/15 03:05:46;;;;;;;1.63;0.70;;;;;;;22.03;32.41;100645.34;4506743;28;20176;-62
2023/10/15 03:08:00;;;;;;;0.85;0.50;;;;;;;22.10;32.31;100657.84;4506277;28;20030;-63
2023/10/15 03:10:21;;;;;;;1.52;0.60;;;;;;;22.10;32.34;100660.69;4506257;28;20030;-62
2023/10/15 03:12:33;;;;;;;0.88;0.52;;;;;;;22.07;32.51;100652.84;4472482;28;20830;-63
2023/10/15 03:14:45;;;;;;;0.93;0.57;;;;;;;22.08;32.42;100656.56;4506919;28;20153;-62
2023/10/15 03:16:56;;;;;;;0.77;0.50;;;;;;;21.97;31.93;100636.22;4505927;28;20036;-63
2023/10/15 03:19:15;;;;;;;1.30;0.40;;;;;;;21.99;32.05;100645.25;4505504;28;20048;-63
2023/10/15 03:21:30;;;;;;;0.68;0.40;;;;;;;22.02;32.42;100650.25;4506941;28;20088;-62
2023/10/15 03:23:41;;;;;;;0.63;0.50;;;;;;;22.07;32.58;100666.41;4490091;28;20125;-62
2023/10/15 03:25:58;;;;;;;0.60;0.40;;;;;;;22.06;32.39;100662.69;4504467;28;20133;-63
2023/10/15 03:28:12;;;;;;;1.70;0.57;;;;;;;22.08;32.38;100656.56;4504382;28;20061;-63
2023/10/15 03:30:23;;;;;;;1.42;0.50;;;;;;;22.06;32.67;100656.94;4488385;28;20114;-63
2023/10/15 03:32:40;;;;;;;0.90;0.50;;;;;;;22.06;32.68;100659.81;4505761;28;20116;-63
2023/10/15 03:34:59;;;;;;;;;;;;;;;22.06;32.70;100659.81;4504176;28;20034;-63
2023/10/15 03:37:13;;;;;;;0.50;0.43;;;;;;;21.98;32.54;100646.47;4505637;28;19928;-63
2023/10/15 03:39:25;;;;;;;1.00;0.50;;;;;;;22.02;32.58;100656.00;4487144;28;20038;-63
2023/10/15 03:41:40;;;;;;;1.15;0.43;;;;;;;22.05;32.71;100661.03;4505016;28;20045;-63
2023/10/15 03:43:51;;;;;;;0.30;0.30;;;;;;;22.05;33.18;100669.66;4505751;28;20942;-63
2023/10/15 03:46:16;;;;;;;0.70;0.40;;;;;;;22.01;32.83;100654.34;4488408;28;20045;-63
2023/10/15 03:48:30;;;;;;;0.63;0.50;;;;;;;22.02;32.69;100656.00;4480415;28;20047;-63
2023/10/15 03:50:53;;;;;;;0.85;0.40;;;;;;;22.03;32.99;100662.59;4505922;28;20042;-63
2023/10/15 03:53:03;;;;;;;0.80;0.50;;;;;;;22.03;32.91;100672.06;4503840;28;20062;-63
2023/10/15 03:55:14;;;;;;;0.70;0.40;;;;;;;22.04;33.13;100670.84;4491123;28;20538;-63
2023/10/15 03:57:27;;;;;;;0.60;0.40;;;;;;;22.04;33.07;100673.72;4474239;28;20027;-63
2023/10/15 03:59:44;;;;;;;0.75;0.43;;;;;;;22.02;32.77;100667.50;4509423;28;20057;-63
2023/10/15 04:01:56;;;;;;;0.75;0.40;;;;;;;22.00;33.00;100664.19;4509354;28;20038;-63
2023/10/15 04:04:09;;;;;;;1.50;0.55;;;;;;;21.97;32.97;100653.44;4509358;28;20295;-63
2023/10/15 04:06:20;;;;;;;0.65;0.47;;;;;;;22.02;33.35;100670.38;4483577;28;20019;-63
2023/10/15 04:08:32;;;;;;;1.05;0.50;;;;;;;22.01;33.28;100671.59;4509215;28;20677;-63
2023/10/15 04:10:42;;;;;;;0.50;0.40;;;;;;;22.02;33.33;100679.00;4508039;28;20030;-63
2023/10/15 04:12:53;;;;;;;0.73;0.50;;;;;;;21.99;33.44;100665.38;4508543;28;20262;-63
2023/10/15 04:15:13;;;;;;;0.98;0.50;;;;;;;21.98;33.50;100660.00;4490328;28;20081;-63
2023/10/15 04:17:23;;;;;;;0.70;0.40;;;;;;;22.01;33.27;100668.72;4489417;28;20049;-63
2023/10/15 04:19:35;;;;;;;0.95;0.57;;;;;;;22.00;33.12;100664.19;4491321;28;20702;-63
2023/10/15 04:21:47;;;;;;;0.70;0.60;;;;;;;22.00;33.39;100669.09;4506793;28;20644;-63
2023/10/15 04:23:57;;;;;;;0.80;0.50;;;;;;;22.00;33.23;100658.44;4482731;28;20041;-63
2023/10/15 04:26:12;;;;;;;1.00;0.50;;;;;;;21.99;33.32;100659.63;4489117;28;20101;-63
2023/10/15 04:28:25;;;;;;;0.90;0.52;;;;;;;21.99;33.29;100648.13;4507544;28;20026;-63
2023/10/15 04:30:39;;;;;;;0.95;0.60;;;;;;;22.00;33.11;100652.69;4507895;28;20044;-63
2023/10/15 04:32:50;;;;;;;1.27;0.50;;;;;;;21.99;33.38;100645.25;4508634;28;20037;-63
2023/10/15 04:35:08;;;;;;;0.98;0.52;;;;;;;21.94;32.89;100634.09;4507523;28;20491;-63
2023/10/15 04:37:20;;;;;;;1.00;0.50;;;;;;;21.99;33.06;100647.31;4490333;28;20133;-63
2023/10/15 04:39:31;;;;;;;1.05;0.60;;;;;;;21.97;32.89;100643.97;4485602;28;20930;-63
2023/10/15 04:41:41;;;;;;;1.08;0.52;;;;;;;22.00;33.05;100646.09;4491104;28;20029;-63
2023/10/15 04:43:53;;;;;;;0.68;0.40;;;;;;;21.95;32.76;100630.00;4507863;28;20034;-63
2023/10/15 04:46:07;;;;;;;0.70;0.50;;;;;;;21.97;32.70;100641.94;4507807;28;20939;-63
2023/10/15 04:48:26;;;;;;;0.90;0.60;;;;;;;21.92;33.25;100627.88;4507251;28;20034;-63
2023/10/15 04:50:36;;;;;;;0.68;0.50;;;;;;;21.97;33.34;100641.94;4508000;28;21012;-63
2023/10/15 04:52:47;;;;;;;1.60;0.70;;;;;;;21.94;33.07;100630.38;4507822;28;20132;-63
2023/10/15 04:54:57;;;;;;;1.65;0.73;;;;;;;21.96;32.97;100627.97;4507708;28;20042;-63
2023/10/15 04:57:07;;;;;;;1.13;0.60;;;;;;;21.95;32.96;100632.88;4506619;28;20034;-63
2023/10/15 04:59:18;;;;;;;0.43;0.40;;;;;;;21.98;32.82;100640.72;4505898;28;20505;-63
2023/10/15 05:01:30;;;;;;;0.70;0.50;;;;;;;21.95;33.34;100637.78;4505606;28;20021;-63
2023/10/15 05:03:45;;;;;;;1.17;0.47;;;;;;;21.96;33.04;100640.25;4507071;28;20056;-63
2023/10/15 05:06:00;;;;;;;0.95;0.47;;;;;;;21.97;32.67;100646.84;4506357;28;20026;-63
2023/10/15 05:08:11;;;;;;;0.88;0.60;;;;;;;21.94;33.18;100636.97;4507601;28;20034;-63
2023/10/15 05:10:23;;;;;;;0.52;0.50;;;;;;;21.92;32.76;100633.63;4506911;28;20038;-63
2023/10/15 05:12:34;;;;;;;0.60;0.50;;;;;;;21.95;32.80;100644.34;4506998;28;20116;-63
2023/10/15 05:14:49;;;;;;;1.27;0.60;;;;;;;21.97;33.25;100647.69;4505256;28;20040;-63
2023/10/15 05:17:00;;;;;;;0.55;0.40;;;;;;;21.97;32.84;100643.97;4506911;28;20532;-63
2023/10/15 05:19:13;;;;;;;1.35;0.60;;;;;;;21.91;33.37;100636.88;4506732;28;20051;-63
2023/10/15 05:21:23;;;;;;;1.15;0.57;;;;;;;21.95;33.03;100641.50;4507326;28;20053;-63
2023/10/15 05:23:34;;;;;;;1.00;0.70;;;;;;;21.95;32.97;100632.03;4507356;28;20042;-63
2023/10/15 05:25:44;;;;;;;0.77;0.60;;;;;;;21.95;33.19;100627.13;4506425;28;20041;-63
2023/10/15 05:27:55;;;;;;;0.60;0.60;;;;;;;21.93;33.34;100629.53;4487806;28;20042;-63
2023/10/15 05:30:09;;;;;;;0.98;0.60;;;;;;;21.95;33.52;100638.63;4507199;28;20030;-63
2023/10/15 05:32:20;;;;;;;1.27;0.73;;;;;;;21.92;33.33;100638.53;4506110;28;20042;-63
2023/10/15 05:34:30;;;;;;;0.75;0.63;;;;;;;21.92;33.32;100636.50;4505303;28;20030;-63
2023/10/15 05:36:41;;;;;;;1.25;0.80;;;;;;;21.94;33.45;100648.44;4486936;28;20132;-63
2023/10/15 05:38:52;;;;;;;1.88;0.75;;;;;;;21.94;33.01;100639.84;4492275;28;20070;-63
2023/10/15 05:41:02;;;;;;;1.13;0.65;;;;;;;21.95;33.40;100647.22;4488334;28;20034;-63
2023/10/15 05:43:13;;;;;;;1.02;0.70;;;;;;;21.94;33.73;100639.84;4507089;28;20018;-63
2023/10/15 05:45:23;;;;;;;1.58;0.82;;;;;;;21.91;33.51;100636.88;4488309;28;20042;-63
2023/10/15 05:47:34;;;;;;;0.88;0.70;;;;;;;21.88;33.55;100638.44;4505440;28;20495;-63
2023/10/15 05:49:45;;;;;;;1.10;0.65;;;;;;;21.94;33.16;100644.72;4506811;28;20049;-63
2023/10/15 05:51:55;;;;;;;1.00;0.70;;;;;;;21.95;33.68;100644.34;4481300;28;20047;-63
2023/10/15 05:54:06;;;;;;;0.75;0.60;;;;;;;21.93;33.71;100637.31;4506952;28;20471;-63
2023/10/15 05:56:18;;;;;;;1.48;0.80;;;;;;;21.94;33.83;100639.84;4505597;28;20036;-63
2023/10/15 05:58:29;;;;;;;1.50;0.80;;;;;;;21.94;33.57;100651.31;4506093;28;20104;-63
2023/10/15 06:00:39;;;;;;;0.98;0.70;;;;;;;21.90;33.76;100644.66;4506661;28;20072;-63
2023/10/15 06:02:56;;;;;;;0.70;0.57;;;;;;;21.91;33.52;100649.19;4487467;28;20156;-63
2023/10/15 06:05:06;;;;;;;0.70;0.70;;;;;;;21.93;33.52;100651.66;4506610;28;20064;-63
2023/10/15 06:07:16;;;;;;;0.90;0.60;;;;;;;21.90;33.83;100647.53;4506257;28;20034;-63
2023/10/15 06:09:27;;;;;;;1.98;0.80;;;;;;;21.87;33.88;100644.56;4506130;28;20688;-63
2023/10/15 06:11:38;;;;;;;0.63;0.60;;;;;;;21.91;33.78;100643.44;4487517;28;20053;-63
2023/10/15 06:13:48;;;;;;;1.00;0.77;;;;;;;21.90;33.93;100640.94;4506884;28;20049;-63
2023/10/15 06:16:00;;;;;;;1.45;0.88;;;;;;;21.91;33.42;100642.63;4504544;28;20037;-63
2023/10/15 06:18:11;;;;;;;0.90;0.60;;;;;;;21.90;33.67;100641.78;4504366;28;20893;-63
2023/10/15 06:20:21;;;;;;;1.52;1.00;;;;;;;21.91;33.54;100651.25;4506630;28;20041;-63
2023/10/15 06:22:32;;;;;;;1.45;1.00;;;;;;;21.86;33.89;100646.63;4489672;28;20027;-63
2023/10/15 06:24:46;;;;;;;0.95;0.80;;;;;;;21.89;34.00;100663.09;4506480;28;20128;-63
2023/10/15 06:26:57;;;;;;;0.90;0.60;;;;;;;21.90;34.14;100666.78;4506002;28;20033;-63
2023/10/15 06:29:09;;;;;;;1.02;0.70;;;;;;;21.89;33.82;100671.72;4506877;28;20061;-63
2023/10/15 06:31:20;;;;;;;1.80;0.70;;;;;;;21.88;33.84;100670.03;4505195;28;20068;-63
2023/10/15 06:33:31;;;;;;;1.17;0.70;;;;;;;21.88;33.63;100670.03;4506088;28;20044;-63
2023/10/15 06:35:41;;;;;;;1.38;0.70;;;;;;;21.88;33.76;100677.84;4504374;28;20121;-63
2023/10/15 06:37:57;;;;;;;0.60;0.60;;;;;;;21.87;33.89;100674.13;4505012;28;20487;-63
2023/10/15 06:40:08;;;;;;;1.00;0.77;;;;;;;21.88;33.63;100678.66;4488965;28;20034;-63
2023/10/15 06:42:19;;;;;;;0.80;0.70;;;;;;;21.87;33.60;100688.50;4504253;28;20081;-63
2023/10/15 06:44:29;;;;;;;1.67;0.85;;;;;;;21.87;33.52;100682.75;4505265;28;20041;-63
2023/10/15 06:46:40;;;;;;;1.60;0.80;;;;;;;21.89;33.49;100691.00;4505448;28;20120;-63
2023/10/15 06:48:51;;;;;;;1.23;0.70;;;;;;;21.87;33.50;100700.00;4506542;28;20032;-63
2023/10/15 06:51:04;;;;;;;1.40;0.70;;;;;;;21.87;33.54;100690.53;4491247;28;20034;-63
2023/10/15 06:53:15;;;;;;;2.03;0.70;;;;;;;21.82;33.81;100685.06;4505575;28;20030;-63
2023/10/15 06:55:25;;;;;;;1.30;0.80;;;;;;;21.86;34.03;100697.50;4504582;28;20038;-63
2023/10/15 06:57:40;;;;;;;2.35;1.00;;;;;;;21.88;33.80;100690.16;4488086;28;20046;-63
2023/10/15 06:59:52;;;;;;;1.25;0.80;;;;;;;21.84;33.90;100686.38;4479934;28;20149;-63
2023/10/15 07:02:03;;;;;;;2.00;1.00;;;;;;;21.87;34.09;100696.28;4464467;28;20061;-63
2023/10/15 07:04:14;;;;;;;0.85;0.80;;;;;;;21.88;34.03;100700.84;4480347;28;20110;-63
2023/10/15 07:06:24;;;;;;;1.63;1.08;;;;;;;21.83;34.14;100695.38;4474079;28;20117;-63
2023/10/15 07:08:35;;;;;;;1.75;1.00;;;;;;;21.85;34.27;100701.59;4505669;28;20044;-63
2023/10/15 07:10:46;;;;;;;1.42;0.90;;;;;;;21.82;33.70;100697.41;4504228;28;20129;-63
2023/10/15 07:12:56;;;;;;;1.58;1.00;;;;;;;21.78;33.97;100693.63;4487721;28;20514;-63
2023/10/15 07:15:09;;;;;;;1.23;0.80;;;;;;;21.85;33.86;100708.16;4471053;28;20031;-63
2023/10/15 07:17:19;;;;;;;1.95;1.00;;;;;;;21.85;34.16;100713.91;4504938;28;20164;-63
2023/10/15 07:19:30;;;;;;;0.93;0.85;;;;;;;21.84;34.21;100711.41;4487483;28;20034;-63
2023/10/15 07:21:41;;;;;;;1.70;0.90;;;;;;;21.82;34.14;100710.94;4486985;28;20042;-63
2023/10/15 07:23:53;;;;;;;1.00;0.90;;;;;;;21.86;34.41;100721.34;4505711;28;20037;-63
2023/10/15 07:26:03;;;;;;;1.13;0.88;;;;;;;21.85;34.24;100719.66;4487940;28;20624;-64
2023/10/15 07:28:14;;;;;;;1.13;0.75;;;;;;;21.79;34.37;100703.06;4487330;28;20125;-63
2023/10/15 07:30:25;;;;;;;1.40;0.98;;;;;;;21.80;34.51;100717.06;4505695;28;20506;-63
2023/10/15 07:32:36;;;;;;;1.67;0.90;;;;;;;21.85;34.40;100728.25;4505923;28;20797;-63
2023/10/15 07:34:50;;;;;;;1.17;0.90;;;;;;;21.86;34.33;100732.81;4489632;28;20082;-64
2023/10/15 07:37:01;;;;;;;1.05;0.90;;;;;;;21.84;34.00;100722.88;4496964;28;20038;-64
2023/10/15 07:39:14;;;;;;;1.33;0.93;;;;;;;21.80;34.30;100734.28;4511147;28;34947;-64
2023/10/15 07:41:25;;;;;;;1.25;0.98;;;;;;;21.79;34.59;100732.63;4497090;28;20034;-64
2023/10/15 07:43:36;;;;;;;2.63;1.00;;;;;;;21.79;34.63;100732.63;4493976;28;20034;-64
2023/10/15 07:45:46;;;;;;;1.27;0.90;;;;;;;21.79;34.76;100732.63;4477527;28;20039;-64
2023/10/15 07:48:01;;;;;;;1.17;0.95;;;;;;;21.84;34.99;100740.97;4497560;28;20042;-64
2023/10/15 07:50:18;;;;;;;1.90;1.25;;;;;;;21.84;34.45;100746.72;4495468;28;20093;-64
2023/10/15 07:52:29;;;;;;;;;;;;;;;21.84;34.97;100752.47;4495525;28;20113;-64
2023/10/15 07:54:39;;;;;;;2.20;1.33;;;;;;;21.83;34.92;100753.69;4511349;28;19968;-64
2023/10/15 07:56:50;;;;;;;1.88;1.23;;;;;;;21.80;35.20;100751.53;4509829;28;20076;-64
2023/10/15 07:59:04;;;;;;;1.30;0.90;;;;;;;21.82;34.91;100748.28;4486233;28;20052;-64
2023/10/15 08:01:14;;;;;;;1.30;1.00;;;;;;;21.77;34.98;100745.72;4496436;28;20031;-64
2023/10/15 08:03:26;;;;;;;0.80;0.80;;;;;;;21.82;35.18;100759.78;4494666;28;20735;-64
2023/10/15 08:05:39;;;;;;;1.63;0.95;;;;;;;21.80;35.13;100762.22;4494395;28;20661;-64
2023/10/15 08:07:50;;;;;;;1.13;0.80;;;;;;;21.79;34.74;100766.28;4495871;28;20027;-64
2023/10/15 08:10:01;;;;;;;0.85;0.80;;;;;;;21.83;34.95;100762.31;4496122;28;20029;-64
2023/10/15 08:12:12;;;;;;;1.30;0.93;;;;;;;21.81;34.69;100769.63;4496498;28;20874;-63
2023/10/15 08:14:22;;;;;;;1.63;1.15;;;;;;;21.79;34.66;100769.16;4495531;28;20097;-63
2023/10/15 08:16:33;;;;;;;1.33;1.00;;;;;;;21.79;34.53;100775.72;4504550;28;20038;-63
2023/10/15 08:18:45;;;;;;;1.00;0.85;;;;;;;21.83;34.45;100781.56;4510438;28;20522;-63
2023/10/15 08:20:55;;;;;;;1.38;1.02;;;;;;;21.83;34.75;100776.69;4492250;28;20031;-63
2023/10/15 08:23:06;;;;;;;3.15;2.40;;;;;;;21.78;34.95;100770.38;4506845;28;20380;-64
2023/10/15 08:25:21;;;;;;;1.17;1.00;;;;;;;21.78;34.55;100774.06;4503317;28;20092;-64
2023/10/15 08:27:33;;;;;;;1.40;1.30;;;;;;;21.82;34.93;100786.47;4507639;28;20107;-64
2023/10/15 08:29:44;;;;;;;0.80;0.80;;;;;;;21.81;34.83;100789.72;4505303;28;20042;-62
2023/10/15 08:31:54;;;;;;;1.05;0.80;;;;;;;21.80;35.16;100786.00;4504833;28;20045;-62
2023/10/15 08:34:05;;;;;;;1.13;0.90;;;;;;;21.80;34.67;100791.75;4504820;28;20022;-62
2023/10/15 08:36:15;;;;;;;1.10;0.90;;;;;;;21.81;34.59;100792.59;4503473;28;20132;-62
2023/10/15 08:38:26;;;;;;;1.05;0.80;;;;;;;21.79;34.46;100789.25;4504389;28;20125;-61
2023/10/15 08:40:41;;;;;;;1.75;1.58;;;;;;;21.79;34.59;100790.09;4504870;28;20048;-62
2023/10/15 08:43:13;;;;;;;0.90;0.73;;;;;;;21.85;34.72;100800.09;4507696;28;20120;-62
2023/10/15 08:45:23;;;;;;;2.10;1.10;;;;;;;22.12;34.76;100799.16;4507409;28;20136;-62
2023/10/15 08:47:35;;;;;;;0.82;0.75;;;;;;;22.17;34.53;100807.50;4505422;28;20507;-64
2023/10/15 08:49:51;;;;;;;0.95;0.82;;;;;;;22.11;34.34;100800.38;4506837;28;20026;-64
2023/10/15 08:52:01;;;;;;;0.60;0.60;;;;;;;22.06;35.01;100812.16;4507237;28;20065;-63
2023/10/15 08:54:14;;;;;;;0.70;0.70;;;;;;;22.03;34.79;100807.16;4507936;28;20105;-63
2023/10/15 08:56:25;;;;;;;1.00;0.90;;;;;;;21.98;34.96;100806.59;4488248;28;20047;-63
2023/10/15 08:58:36;;;;;;;0.77;0.70;;;;;;;21.91;35.01;100803.56;4488696;28;20616;-65
2023/10/15 09:00:51;;;;;;;1.20;0.73;;;;;;;21.95;35.39;100815.94;4474250;28;20040;-63
2023/10/15 09:03:01;;;;;;;0.80;0.70;;;;;;;21.96;35.22;100827.06;4506225;28;20027;-63
2023/10/15 09:05:16;;;;;;;0.70;0.70;;;;;;;21.94;35.55;100832.38;4506406;28;20030;-63
2023/10/15 09:07:27;;;;;;;0.95;0.70;;;;;;;21.94;35.29;100823.75;4506780;28;20034;-64
2023/10/15 09:09:37;;;;;;;0.70;0.60;;;;;;;21.88;34.93;100836.72;4506381;28;20030;-64
2023/10/15 09:11:50;;;;;;;0.60;0.60;;;;;;;21.90;35.32;100847.84;4490019;28;20409;-63
2023/10/15 09:14:02;;;;;;;1.52;0.70;;;;;;;21.92;34.83;100854.06;4506395;28;20081;-64
2023/10/15 09:16:13;;;;;;;0.70;0.70;;;;;;;21.88;34.92;100841.66;4504813;28;20076;-63
2023/10/15 09:18:25;;;;;;;0.68;0.65;;;;;;;21.90;35.30;100844.97;4489034;28;20175;-63
2023/10/15 09:20:35;;;;;;;0.77;0.65;;;;;;;21.85;35.30;100837.47;4506471;28;20030;-64
2023/10/15 09:22:47;;;;;;;0.52;0.50;;;;;;;21.87;35.33;100843.69;4505431;28;20502;-64
2023/10/15 09:24:57;;;;;;;0.85;0.80;;;;;;;21.90;34.78;100851.56;4506214;28;20026;-63
2023/10/15 09:27:08;;;;;;;1.02;0.60;;;;;;;21.90;35.04;100850.72;4488374;28;20554;-63
2023/10/15 09:29:19;;;;;;;0.60;0.60;;;;;;;21.88;34.76;100848.22;4505440;28;20149;-63
2023/10/15 09:31:33;;;;;;;0.95;0.60;;;;;;;21.90;34.81;100865.94;4506924;28;20036;-63
2023/10/15 09:33:44;;;;;;;0.50;0.50;;;;;;;21.89;34.52;100852.78;4506875;28;20722;-63
2023/10/15 09:35:55;;;;;;;0.43;0.40;;;;;;;21.91;34.69;100852.41;4507206;28;20025;-63
2023/10/15 09:38:14;;;;;;;0.82;0.60;;;;;;;21.88;34.29;100862.59;4505352;28;20072;-63
2023/10/15 09:40:30;;;;;;;0.80;0.50;;;;;;;21.92;34.24;100862.69;4506310;28;20033;-64
2023/10/15 09:42:41;;;;;;;1.75;0.70;;;;;;;21.91;34.08;100855.28;4506039;28;20179;-63
2023/10/15 09:44:52;;;;;;;1.38;0.60;;;;;;;21.92;34.07;100866.41;4507054;28;20040;-63
2023/10/15 09:47:02;;;;;;;0.50;0.40;;;;;;;21.90;34.54;100856.47;4506319;28;20045;-63
2023/10/15 09:49:13;;;;;;;0.70;0.43;;;;;;;21.89;34.30;100846.19;4506859;28;20042;-63
2023/10/15 09:51:24;;;;;;;0.68;0.40;;;;;;;21.89;34.58;100852.78;4505769;28;20061;-63
2023/10/15 09:53:35;;;;;;;0.63;0.50;;;;;;;21.94;34.30;100861.13;4505401;28;20030;-63
2023/10/15 09:55:47;;;;;;;0.32;0.30;;;;;;;21.84;34.79;100841.56;4472150;28;20609;-63
2023/10/15 09:58:01;;;;;;;1.17;0.80;;;;;;;21.96;34.75;100867.31;4505427;28;20061;-63
2023/10/15 10:00:19;;;;;;;0.50;0.40;;;;;;;21.95;34.59;100874.28;4505841;28;20124;-63
2023/10/15 10:02:39;;;;;;;0.35;0.30;;;;;;;21.96;34.22;100875.13;4487715;28;20558;-63
2023/10/15 10:05:44;;;;;;;0.88;0.40;;;;;;;21.89;34.10;100863.44;4504934;28;20046;-63
2023/10/15 10:08:11;;;;;;;0.80;0.57;;;;;;;21.96;34.61;100873.06;4506258;28;20956;-63
2023/10/15 10:10:44;;;;;;;0.80;0.30;;;;;;;21.97;34.56;100871.88;4490020;28;20033;-64
2023/10/15 10:13:22;;;;;;;0.75;0.20;;;;;;;21.96;34.14;100870.19;4505714;28;20049;-63
2023/10/15 10:15:49;;;;;;;0.40;0.30;;;;;;;21.98;34.40;100876.41;4504208;28;20030;-64
2023/10/15 10:18:01;;;;;;;0.50;0.30;;;;;;;21.93;34.59;100875.84;4479739;28;20035;-64
2023/10/15 10:20:13;;;;;;;0.30;0.30;;;;;;;21.98;34.65;100884.19;4505252;28;20280;-63
2023/10/15 10:22:26;;;;;;;0.38;0.30;;;;;;;21.94;34.27;100886.16;4503687;28;20026;-64
2023/10/15 10:24:42;;;;;;;0.60;0.30;;;;;;;21.98;34.36;100889.94;4505889;28;20149;-64
2023/10/15 10:26:54;;;;;;;0.30;0.20;;;;;;;22.00;34.04;100902.75;4505266;28;20038;-64
2023/10/15 10:29:06;;;;;;;0.40;0.25;;;;;;;21.98;34.28;100890.78;4487523;28;20038;-63
2023/10/15 10:31:18;;;;;;;0.20;0.20;;;;;;;21.93;34.19;100882.44;4504974;28;21267;-63
2023/10/15 10:33:44;;;;;;;0.50;0.20;;;;;;;22.01;34.66;100895.78;4491569;28;20101;-64
2023/10/15 10:35:59;;;;;;;0.45;0.20;;;;;;;22.01;34.57;100889.19;4505237;28;20574;-64